This is the latest recevied weather packets stored in our database for station/object W1ERB-13. If no packets are shown the sender has not sent any weather packets the latest 10 day(s).
| Time | Temp. | Humidity | Pressure | Rain* | Wind** | Luminosity | Snow |
|---|---|---|---|---|---|---|---|
| 1777747372 | 11.11° C | 92% | 1010.8 hPa | 0 mm | - | 406 W/m² | - |
| 1777747069 | 10° C | 93% | 1011.1 hPa | 0 mm | - | 367 W/m² | - |
| 1777746765 | 10° C | 91% | 1011.2 hPa | 0 mm | - | 172 W/m² | - |
| 1777746460 | 9.44° C | 92% | 1011.2 hPa | 0 mm | - | 137 W/m² | - |
| 1777746156 | 9.44° C | 92% | 1011.3 hPa | 1.78 mm | - | 52 W/m² | - |
| 1777745852 | 9.44° C | 92% | 1011.2 hPa | 3.05 mm | - | 53 W/m² | - |
| 1777745551 | 10° C | 92% | 1011 hPa | 1.27 mm | - | 78 W/m² | - |
| 1777745248 | 10° C | 92% | 1011.4 hPa | 0 mm | - | 71 W/m² | - |
| 1777744946 | 10° C | 92% | 1011 hPa | 0 mm | - | 84 W/m² | - |
| 1777744645 | 10° C | 92% | 1010.8 hPa | 1.78 mm | - | 105 W/m² | - |
| 1777744340 | 10° C | 91% | 1011 hPa | 1.78 mm | - | 94 W/m² | - |
| 1777744038 | 9.44° C | 90% | 1010.9 hPa | 0 mm | - | 116 W/m² | - |
| 1777743735 | 9.44° C | 89% | 1011 hPa | 0 mm | - | 68 W/m² | - |
| 1777743431 | 10° C | 87% | 1011.1 hPa | 0 mm | - | 50 W/m² | - |
| 1777743129 | 10° C | 85% | 1011.2 hPa | 0 mm | - | 59 W/m² | - |
| 1777742827 | 10.56° C | 82% | 1010.9 hPa | 0 mm | - | 60 W/m² | - |
| 1777742522 | 11.11° C | 80% | 1011 hPa | 0 mm | - | 42 W/m² | - |
| 1777742218 | 11.67° C | 76% | 1010.9 hPa | 0 mm | - | 75 W/m² | - |
| 1777741915 | 12.78° C | 74% | 1010.7 hPa | 0 mm | - | 193 W/m² | - |
| 1777741613 | 13.33° C | 72% | 1010.6 hPa | 0 mm | - | 204 W/m² | - |
| 1777741310 | 13.33° C | 70% | 1010.7 hPa | 0 mm | - | 186 W/m² | - |
| 1777741006 | 13.33° C | 71% | 1010.6 hPa | 0 mm | - | 281 W/m² | - |
| 1777740703 | 13.33° C | 72% | 1010.6 hPa | 0 mm | - | 350 W/m² | - |
| 1777740399 | 13.33° C | 70% | 1010.6 hPa | 0 mm | - | 370 W/m² | - |
| 1777740096 | 13.33° C | 70% | 1010.4 hPa | 0 mm | - | 484 W/m² | - |
* Rain latest hour (hover to see other rain measurements)
** Current wind speed in m/s (hover to see current wind gust speed)